Time;durP1;ratioP1;P1;durP2;ratioP2;P2;SDS_P1;SDS_P2;PMS_P1;PMS_P2;Temp;Humidity;BMP_temperature;BMP_pressure;BME280_temperature;BME280_humidity;BME280_pressure;Samples;Min_cycle;Max_cycle;Signal;HPM_P1;HPM_P2
2023/05/06 00:01:21;;;;;;;10.85;3.00;;;;;;;2.20;68.49;100625.59;1700041;82;21003;-68
2023/05/06 00:03:48;;;;;;;8.15;3.22;;;;;;;2.09;67.99;100622.14;1690736;83;21535;-69
2023/05/06 00:06:14;;;;;;;7.30;2.45;;;;;;;2.00;68.25;100621.27;1693309;82;21566;-71
2023/05/06 00:08:40;;;;;;;5.45;2.98;;;;;;;2.01;68.26;100622.97;1693528;82;21006;-69
2023/05/06 00:11:06;;;;;;;7.42;2.83;;;;;;;2.04;68.42;100616.97;1691469;83;20995;-69
2023/05/06 00:13:33;;;;;;;6.12;2.02;;;;;;;2.08;69.63;100623.02;1697318;82;21022;-69
2023/05/06 00:15:59;;;;;;;9.28;2.77;;;;;;;2.13;69.19;100611.86;1693256;82;21010;-68
2023/05/06 00:18:25;;;;;;;7.65;3.08;;;;;;;2.21;70.35;100619.58;1694681;83;21015;-69
2023/05/06 00:20:52;;;;;;;4.70;2.52;;;;;;;2.31;70.75;100617.45;1668214;83;21050;-69
2023/05/06 00:23:18;;;;;;;7.33;2.83;;;;;;;2.38;71.15;100615.31;1698378;83;21047;-70
2023/05/06 00:25:45;;;;;;;5.72;2.00;;;;;;;2.49;71.31;100622.17;1699401;83;21007;-69
2023/05/06 00:28:11;;;;;;;2.42;1.75;;;;;;;2.55;71.42;100619.59;1693801;83;21023;-69
2023/05/06 00:30:37;;;;;;;6.42;2.27;;;;;;;2.54;71.23;100617.45;1682985;83;21581;-69
2023/05/06 00:33:03;;;;;;;5.72;1.95;;;;;;;2.64;72.22;100618.32;1679750;84;21601;-69
2023/05/06 00:35:30;;;;;;;4.03;2.00;;;;;;;2.71;71.63;100620.02;1688300;84;21034;-69
2023/05/06 00:38:08;;;;;;;7.22;3.27;;;;;;;2.80;71.72;100616.16;1681357;84;20952;-68
2023/05/06 00:40:34;;;;;;;5.58;2.33;;;;;;;2.87;72.01;100620.44;1679153;84;21027;-69
2023/05/06 00:43:00;;;;;;;6.03;2.85;;;;;;;2.97;72.32;100615.25;1682345;83;21023;-69
2023/05/06 00:45:27;;;;;;;5.67;2.55;;;;;;;3.01;71.68;100622.14;1681996;84;20939;-68
2023/05/06 00:47:53;;;;;;;10.38;4.08;;;;;;;3.01;71.13;100618.27;1681665;84;21055;-68
2023/05/06 00:50:21;;;;;;;6.80;3.95;;;;;;;3.06;72.51;100620.41;1679808;84;21338;-68
2023/05/06 00:52:48;;;;;;;10.98;5.62;;;;;;;3.10;71.55;100613.93;1688285;84;20967;-69
2023/05/06 00:55:16;;;;;;;10.18;6.17;;;;;;;3.10;72.10;100613.93;1682133;83;21071;-70
2023/05/06 00:57:42;;;;;;;6.83;5.67;;;;;;;3.11;71.52;100619.98;1680230;83;21003;-69
2023/05/06 01:00:10;;;;;;;12.88;7.37;;;;;;;3.13;71.61;100611.78;1678225;84;21534;-71
2023/05/06 01:02:36;;;;;;;14.68;7.83;;;;;;;3.16;71.22;100619.51;1677864;84;21006;-69
2023/05/06 01:05:04;;;;;;;16.00;7.43;;;;;;;3.20;71.61;100622.96;1680393;83;21047;-69
2023/05/06 01:07:43;;;;;;;9.48;5.30;;;;;;;3.24;71.14;100623.37;1679127;84;20991;-69
2023/05/06 01:10:22;;;;;;;10.10;6.05;;;;;;;3.25;71.18;100619.51;1679172;83;20941;-69
2023/05/06 01:12:54;;;;;;;11.35;6.22;;;;;;;3.25;71.10;100628.54;1677736;84;22252;-68
2023/05/06 01:15:27;;;;;;;8.73;5.72;;;;;;;3.21;70.70;100625.52;1683564;83;21068;-68
2023/05/06 01:17:57;;;;;;;6.75;4.35;;;;;;;3.23;71.00;100626.38;1680367;84;21050;-68
2023/05/06 01:20:26;;;;;;;9.58;5.72;;;;;;;3.24;71.13;100627.23;1678208;84;21019;-69
2023/05/06 01:22:53;;;;;;;11.85;5.45;;;;;;;3.26;70.84;100626.38;1680854;84;21499;-69
2023/05/06 01:25:20;;;;;;;;;;;;;;;3.25;70.51;100627.25;1689191;83;20946;-69
2023/05/06 01:27:47;;;;;;;8.45;4.87;;;;;;;3.24;70.95;100635.83;1701486;83;20423;-70
2023/05/06 01:30:17;;;;;;;9.45;4.70;;;;;;;3.24;70.31;100630.67;1696566;83;21086;-70
2023/05/06 01:32:55;;;;;;;9.65;4.80;;;;;;;3.21;70.37;100635.84;1704741;81;21299;-69
2023/05/06 01:35:28;;;;;;;7.67;4.90;;;;;;;3.21;70.69;100635.84;1708966;81;21793;-69
2023/05/06 01:38:07;;;;;;;12.05;4.70;;;;;;;3.24;70.38;100633.25;1689644;81;21037;-69
2023/05/06 01:40:35;;;;;;;12.80;5.20;;;;;;;3.24;70.15;100633.25;1704904;81;21105;-69
2023/05/06 01:43:05;;;;;;;10.28;4.55;;;;;;;3.27;70.04;100637.11;1701912;83;21125;-68
2023/05/06 01:45:34;;;;;;;10.00;5.08;;;;;;;3.28;69.88;100644.45;1702056;82;21093;-69
2023/05/06 01:48:01;;;;;;;7.00;4.42;;;;;;;3.31;69.93;100634.97;1701937;81;20950;-69
2023/05/06 01:50:28;;;;;;;9.60;4.20;;;;;;;3.34;69.63;100637.98;1706137;81;21002;-69
2023/05/06 01:52:59;;;;;;;7.72;4.30;;;;;;;3.33;69.53;100631.96;1705105;83;21057;-69
2023/05/06 01:55:26;;;;;;;10.38;4.92;;;;;;;3.31;69.41;100637.55;1701676;83;20985;-69
2023/05/06 01:57:54;;;;;;;8.55;4.50;;;;;;;3.30;69.37;100622.91;1702641;83;21049;-68
2023/05/06 02:00:20;;;;;;;11.68;4.60;;;;;;;3.32;69.22;100631.52;1706341;83;21486;-71
2023/05/06 02:02:46;;;;;;;12.28;4.25;;;;;;;3.30;69.29;100625.48;1704471;81;21090;-68
2023/05/06 02:05:12;;;;;;;10.05;4.95;;;;;;;3.30;69.18;100629.36;1701131;83;21061;-69
2023/05/06 02:07:39;;;;;;;11.93;4.28;;;;;;;3.31;69.09;100632.39;1698124;82;20946;-69
2023/05/06 02:10:07;;;;;;;9.85;4.25;;;;;;;3.33;69.07;100630.67;1699598;83;20967;-68
2023/05/06 02:12:33;;;;;;;6.72;3.90;;;;;;;3.33;68.91;100624.62;1702814;83;21497;-68
2023/05/06 02:14:59;;;;;;;8.18;4.05;;;;;;;3.34;68.94;100628.50;1702662;81;21097;-68
2023/05/06 02:17:26;;;;;;;8.05;4.50;;;;;;;3.38;68.91;100624.61;1701079;82;20923;-68
2023/05/06 02:19:52;;;;;;;9.03;4.72;;;;;;;3.39;68.84;100639.23;1702352;83;21050;-69
2023/05/06 02:22:18;;;;;;;5.08;3.60;;;;;;;3.41;68.84;100627.19;1700644;82;21030;-69
2023/05/06 02:24:45;;;;;;;5.85;3.75;;;;;;;3.42;68.74;100626.31;1694064;83;21133;-68
2023/05/06 02:27:11;;;;;;;6.85;4.15;;;;;;;3.41;68.69;100633.64;1690813;83;21485;-69
2023/05/06 02:29:37;;;;;;;8.48;4.12;;;;;;;3.43;68.66;100628.05;1696269;83;21007;-69
2023/05/06 02:32:04;;;;;;;5.83;4.53;;;;;;;3.43;68.59;100624.17;1690583;83;21018;-69
2023/05/06 02:34:30;;;;;;;7.67;3.90;;;;;;;3.41;68.67;100624.16;1695301;83;21018;-69
2023/05/06 02:36:58;;;;;;;10.30;4.00;;;;;;;3.41;68.49;100627.19;1696064;83;21518;-69
2023/05/06 02:39:24;;;;;;;8.35;3.87;;;;;;;3.38;68.39;100622.03;1697720;83;21065;-69
2023/05/06 02:41:51;;;;;;;5.92;4.12;;;;;;;3.39;68.33;100623.73;1692322;83;20979;-68
2023/05/06 02:44:17;;;;;;;6.80;3.90;;;;;;;3.43;68.23;100630.63;1693485;82;21432;-68
2023/05/06 02:46:43;;;;;;;10.13;4.85;;;;;;;3.45;68.08;100615.56;1690436;82;20983;-68
2023/05/06 02:49:09;;;;;;;6.40;3.72;;;;;;;3.45;68.12;100621.16;1692288;83;21523;-69
2023/05/06 02:51:36;;;;;;;9.70;3.72;;;;;;;3.48;68.03;100628.89;1695009;83;21047;-69
2023/05/06 02:54:02;;;;;;;6.50;3.37;;;;;;;3.47;67.94;100618.12;1693107;82;21015;-69
2023/05/06 02:56:28;;;;;;;5.65;3.77;;;;;;;3.49;67.88;100617.69;1699810;82;21038;-69
2023/05/06 02:58:58;;;;;;;7.83;3.75;;;;;;;3.48;67.71;100617.27;1692041;82;21070;-69
2023/05/06 03:01:24;;;;;;;6.72;3.52;;;;;;;3.47;67.81;100620.70;1696937;82;21003;-68
2023/05/06 03:03:50;;;;;;;8.63;3.33;;;;;;;3.48;67.72;100634.05;1695962;83;21534;-69
2023/05/06 03:06:16;;;;;;;6.05;3.67;;;;;;;3.48;67.63;100626.31;1696027;83;21066;-69
2023/05/06 03:08:43;;;;;;;7.90;3.40;;;;;;;3.49;67.49;100625.44;1697320;83;21010;-69
2023/05/06 03:11:09;;;;;;;5.53;3.20;;;;;;;3.48;67.47;100632.33;1694590;82;20978;-69
2023/05/06 03:13:35;;;;;;;5.22;2.98;;;;;;;3.47;67.35;100622.84;1691907;82;21018;-71
2023/05/06 03:16:01;;;;;;;8.80;3.30;;;;;;;3.48;67.21;100632.33;1691297;83;21542;-70
2023/05/06 03:18:28;;;;;;;4.87;3.05;;;;;;;3.49;67.29;100630.59;1691944;83;21529;-69
2023/05/06 03:20:54;;;;;;;6.20;3.30;;;;;;;3.47;67.29;100619.41;1695236;82;20998;-69
2023/05/06 03:23:20;;;;;;;6.03;3.37;;;;;;;3.46;67.20;100628.03;1692001;83;20978;-69
2023/05/06 03:25:47;;;;;;;5.55;3.37;;;;;;;3.48;67.18;100618.56;1692304;82;21470;-68
2023/05/06 03:28:13;;;;;;;5.20;2.80;;;;;;;3.47;66.97;100634.91;1697398;83;21078;-69
2023/05/06 03:30:39;;;;;;;8.68;2.98;;;;;;;3.50;67.05;100624.56;1699186;83;21538;-69
2023/05/06 03:33:06;;;;;;;6.87;3.12;;;;;;;3.53;67.08;100624.58;1693762;83;21561;-71
2023/05/06 03:35:32;;;;;;;6.17;3.12;;;;;;;3.57;67.07;100624.97;1696471;82;21641;-69
2023/05/06 03:37:58;;;;;;;7.70;3.00;;;;;;;3.58;67.05;100625.39;1694193;83;21525;-68
2023/05/06 03:40:29;;;;;;;5.62;2.80;;;;;;;3.60;67.03;100626.25;1696022;83;21049;-68
2023/05/06 03:42:52;;;;;;;5.95;2.72;;;;;;;3.61;67.14;100632.27;1694392;82;21062;-69
2023/05/06 03:45:19;;;;;;;5.00;2.90;;;;;;;3.65;67.12;100624.51;1693771;83;21066;-69
2023/05/06 03:47:45;;;;;;;4.33;2.60;;;;;;;3.66;66.95;100618.47;1693843;83;21016;-70
2023/05/06 03:50:12;;;;;;;12.58;2.65;;;;;;;3.66;66.61;100646.03;1693914;83;21010;-69
2023/05/06 03:52:39;;;;;;;4.67;2.33;;;;;;;3.67;66.80;100630.53;1699345;82;21034;-71
2023/05/06 03:55:06;;;;;;;6.72;2.62;;;;;;;3.71;66.65;100647.72;1694369;82;21030;-69
2023/05/06 03:57:32;;;;;;;4.25;2.83;;;;;;;3.76;66.58;100638.23;1696111;82;21022;-69
2023/05/06 03:59:58;;;;;;;7.35;3.05;;;;;;;3.77;66.69;100637.36;1691565;82;21034;-69
2023/05/06 04:02:32;;;;;;;5.05;2.65;;;;;;;3.80;66.62;100632.17;1693796;83;21320;-69
2023/05/06 04:04:57;;;;;;;5.03;2.70;;;;;;;3.85;66.51;100635.18;1669297;83;21181;-69
2023/05/06 04:07:24;;;;;;;5.20;2.47;;;;;;;3.87;66.56;100639.92;1690420;83;21015;-69
2023/05/06 04:09:50;;;;;;;8.05;2.70;;;;;;;3.88;66.39;100639.04;1683536;83;21078;-71
2023/05/06 04:12:16;;;;;;;4.58;2.62;;;;;;;3.88;66.28;100639.89;1694375;82;21526;-70
2023/05/06 04:14:42;;;;;;;3.83;2.52;;;;;;;3.88;66.16;100642.47;1690962;83;20987;-70
2023/05/06 04:17:13;;;;;;;5.10;2.60;;;;;;;3.95;66.02;100655.80;1689178;83;21077;-69
2023/05/06 04:19:38;;;;;;;6.65;2.75;;;;;;;3.99;66.09;100647.59;1689465;83;21038;-69
2023/05/06 04:22:05;;;;;;;6.58;2.40;;;;;;;4.06;66.32;100640.20;1692071;82;21584;-69
2023/05/06 04:24:32;;;;;;;5.53;2.50;;;;;;;4.10;66.33;100638.05;1692141;83;21477;-69
2023/05/06 04:26:59;;;;;;;4.30;2.17;;;;;;;4.23;66.26;100650.03;1694093;83;21557;-69
2023/05/06 04:29:25;;;;;;;5.00;2.33;;;;;;;4.32;66.18;100637.92;1691462;83;21006;-69
2023/05/06 04:31:52;;;;;;;8.80;2.40;;;;;;;4.37;65.90;100644.77;1695981;82;20971;-69
2023/05/06 04:34:23;;;;;;;3.55;2.30;;;;;;;4.40;65.72;100641.31;1693745;82;21030;-69
2023/05/06 04:36:53;;;;;;;4.42;2.30;;;;;;;4.42;65.84;100636.96;1682022;83;21074;-69
2023/05/06 04:39:19;;;;;;;3.95;2.08;;;;;;;4.44;65.77;100642.98;1693337;82;21461;-68
2023/05/06 04:41:45;;;;;;;4.60;2.72;;;;;;;4.51;65.62;100642.09;1693211;83;21050;-69
2023/05/06 04:44:11;;;;;;;6.42;2.42;;;;;;;4.60;65.52;100649.77;1694390;83;21015;-69
2023/05/06 04:46:38;;;;;;;4.17;1.95;;;;;;;4.64;65.51;100651.44;1695431;83;22370;-69
2023/05/06 04:49:05;;;;;;;6.53;2.37;;;;;;;4.63;65.55;100647.16;1691756;83;21157;-69
2023/05/06 04:51:33;;;;;;;4.92;2.00;;;;;;;4.68;65.50;100649.71;1695275;82;21006;-69
2023/05/06 04:53:59;;;;;;;7.53;1.95;;;;;;;4.75;65.23;100655.68;1695194;83;20978;-69
2023/05/06 04:56:26;;;;;;;8.50;3.25;;;;;;;4.77;64.71;100647.04;1694021;83;21080;-70
2023/05/06 04:58:52;;;;;;;7.62;2.12;;;;;;;4.78;64.70;100637.54;1691819;83;21015;-69
2023/05/06 05:01:18;;;;;;;4.22;2.27;;;;;;;4.82;64.73;100640.54;1696023;83;20991;-69
2023/05/06 05:03:46;;;;;;;5.75;1.77;;;;;;;4.90;65.08;100627.06;1693137;82;21085;-69
2023/05/06 05:06:17;;;;;;;4.83;1.87;;;;;;;4.95;64.78;100635.64;1692733;82;21110;-70
2023/05/06 05:08:43;;;;;;;3.17;1.80;;;;;;;4.89;64.27;100635.27;1676289;83;20999;-69
2023/05/06 05:11:11;;;;;;;7.47;2.25;;;;;;;5.03;64.57;100639.02;1691237;83;21054;-69
2023/05/06 05:13:38;;;;;;;9.18;1.80;;;;;;;5.20;64.38;100636.26;1690285;83;21327;-69
2023/05/06 05:16:05;;;;;;;4.80;2.08;;;;;;;5.38;64.16;100636.52;1690421;83;21054;-69
2023/05/06 05:18:31;;;;;;;3.25;1.82;;;;;;;5.42;63.59;100629.11;1693017;83;20975;-69
2023/05/06 05:20:57;;;;;;;3.08;1.40;;;;;;;5.41;63.82;100627.41;1695144;82;20944;-69
2023/05/06 05:23:24;;;;;;;5.42;2.40;;;;;;;5.34;63.07;100623.16;1694733;83;21018;-69
2023/05/06 05:25:56;;;;;;;2.62;1.80;;;;;;;5.39;63.13;100621.38;1688799;83;21074;-68
2023/05/06 05:28:23;;;;;;;3.83;1.57;;;;;;;5.40;62.71;100629.56;1683155;83;21093;-68
2023/05/06 05:30:49;;;;;;;2.57;1.20;;;;;;;5.43;62.61;100619.16;1681246;83;21015;-67
2023/05/06 05:33:16;;;;;;;7.65;2.20;;;;;;;5.53;62.69;100618.62;1689184;82;21094;-68
2023/05/06 05:35:42;;;;;;;2.90;1.72;;;;;;;5.65;61.96;100626.68;1688366;82;20983;-66
2023/05/06 05:38:14;;;;;;;3.17;1.62;;;;;;;5.70;61.13;100618.41;1687076;82;21082;-67
2023/05/06 05:40:38;;;;;;;4.08;2.20;;;;;;;5.80;61.99;100623.47;1685220;83;21051;-68
2023/05/06 05:43:13;;;;;;;6.35;2.27;;;;;;;5.85;62.56;100615.61;1689047;83;21620;-68
2023/05/06 05:45:39;;;;;;;5.17;2.17;;;;;;;5.89;61.22;100630.25;1685584;83;21569;-67
2023/05/06 05:48:06;;;;;;;4.53;1.65;;;;;;;5.90;61.29;100622.88;1686759;83;21094;-67
2023/05/06 05:50:32;;;;;;;6.87;1.52;;;;;;;5.97;60.90;100627.59;1682624;83;21038;-67
2023/05/06 05:52:58;;;;;;;1.70;1.50;;;;;;;6.01;61.75;100621.03;1685654;83;20992;-68
2023/05/06 05:55:25;;;;;;;3.90;1.77;;;;;;;6.09;60.19;100629.16;1686673;83;20994;-68
2023/05/06 05:57:51;;;;;;;7.33;2.27;;;;;;;6.13;60.67;100620.44;1685597;83;21263;-68
2023/05/06 06:00:18;;;;;;;8.25;1.77;;;;;;;6.16;60.31;100618.68;1687038;83;21153;-68
2023/05/06 06:02:46;;;;;;;2.55;1.60;;;;;;;6.33;61.19;100617.54;1685898;83;21018;-68
2023/05/06 06:05:12;;;;;;;3.08;1.72;;;;;;;6.48;60.78;100615.57;1688936;83;20980;-68
2023/05/06 06:07:39;;;;;;;4.90;2.50;;;;;;;6.56;58.62;100617.20;1689627;83;21094;-69
2023/05/06 06:10:06;;;;;;;8.40;1.90;;;;;;;6.52;58.25;100615.52;1645773;85;21519;-69
2023/05/06 06:12:32;;;;;;;8.68;1.50;;;;;;;6.52;58.79;100628.49;1622835;87;21028;-70
2023/05/06 06:14:59;;;;;;;5.20;2.40;;;;;;;6.63;57.82;100627.43;1621374;87;22302;-70
2023/05/06 06:17:30;;;;;;;3.98;2.15;;;;;;;6.72;58.05;100618.62;1621684;87;21092;-69
2023/05/06 06:19:58;;;;;;;3.08;1.55;;;;;;;6.78;57.86;100621.56;1680146;82;21157;-69
2023/05/06 06:22:30;;;;;;;3.17;1.57;;;;;;;6.94;58.33;100617.37;1678502;83;21102;-69
2023/05/06 06:24:55;;;;;;;5.33;1.40;;;;;;;6.95;59.06;100620.40;1662777;84;20996;-69
2023/05/06 06:27:22;;;;;;;4.45;1.72;;;;;;;6.94;55.95;100623.86;1677578;83;21059;-70
2023/05/06 06:29:49;;;;;;;6.37;1.67;;;;;;;7.09;58.14;100630.98;1676245;84;21110;-69
2023/05/06 06:32:18;;;;;;;2.08;1.40;;;;;;;7.31;58.09;100608.91;1674447;83;21574;-69
2023/05/06 06:34:44;;;;;;;2.62;1.17;;;;;;;7.31;58.09;100608.91;1674391;84;21079;-69
2023/05/06 06:37:11;;;;;;;5.60;1.90;;;;;;;7.30;58.09;100625.36;1680421;84;20977;-69
2023/05/06 06:39:37;;;;;;;8.05;2.00;;;;;;;7.48;58.11;100611.17;1684481;84;20972;-69
2023/05/06 06:42:05;;;;;;;6.35;2.15;;;;;;;7.58;57.84;100609.22;1681697;84;21146;-69
2023/05/06 06:44:35;;;;;;;3.00;1.50;;;;;;;7.53;56.70;100618.84;1677909;84;20960;-66
2023/05/06 06:47:01;;;;;;;6.12;1.70;;;;;;;7.59;57.42;100608.36;1672755;84;21105;-68
2023/05/06 06:49:29;;;;;;;3.75;1.82;;;;;;;7.60;57.52;100603.11;1682428;83;21072;-66
2023/05/06 06:51:56;;;;;;;4.03;1.15;;;;;;;7.88;56.30;100610.31;1680599;84;20976;-69
2023/05/06 06:54:23;;;;;;;2.75;0.80;;;;;;;8.09;56.50;100614.17;1679294;84;21010;-68
2023/05/06 06:56:51;;;;;;;3.60;1.22;;;;;;;8.10;55.67;100605.95;1678199;84;21286;-68
2023/05/06 06:59:17;;;;;;;2.50;1.40;;;;;;;8.27;55.28;100608.55;1649416;84;21797;-70
2023/05/06 07:01:47;;;;;;;6.28;1.10;;;;;;;8.49;55.61;100602.87;1673950;84;21078;-68
2023/05/06 07:04:13;;;;;;;2.90;1.20;;;;;;;8.43;52.48;100600.40;1681387;84;21015;-70
2023/05/06 07:06:40;;;;;;;3.30;1.00;;;;;;;8.34;51.90;100613.61;1674588;84;21476;-67
2023/05/06 07:09:08;;;;;;;4.60;1.55;;;;;;;8.35;52.57;100606.23;1676299;84;20991;-67
2023/05/06 07:11:34;;;;;;;3.90;0.90;;;;;;;8.52;53.05;100605.40;1676316;84;21026;-68
2023/05/06 07:14:00;;;;;;;4.20;1.22;;;;;;;8.64;53.28;100599.03;1677474;83;21027;-67
2023/05/06 07:16:28;;;;;;;2.87;0.95;;;;;;;8.76;54.41;100587.44;1678971;84;21593;-69
2023/05/06 07:18:55;;;;;;;1.90;0.93;;;;;;;8.61;52.91;100594.75;1677102;84;21091;-68
2023/05/06 07:21:21;;;;;;;3.55;1.22;;;;;;;8.50;53.48;100602.82;1679698;84;20991;-70
2023/05/06 07:23:47;;;;;;;5.50;1.30;;;;;;;8.59;50.39;100622.56;1679501;82;20999;-69
2023/05/06 07:26:13;;;;;;;2.22;1.40;;;;;;;8.54;52.70;100596.23;1686990;83;21014;-69
2023/05/06 07:28:40;;;;;;;2.72;1.30;;;;;;;8.30;51.32;100605.88;1688226;83;21481;-68
2023/05/06 07:31:14;;;;;;;1.37;0.78;;;;;;;8.25;50.48;100598.62;1685617;83;21149;-69
2023/05/06 07:33:41;;;;;;;4.25;1.17;;;;;;;8.29;50.76;100609.38;1688482;83;21077;-68
2023/05/06 07:36:07;;;;;;;4.62;1.55;;;;;;;8.35;50.73;100597.13;1689731;83;21053;-69
2023/05/06 07:38:34;;;;;;;4.42;1.30;;;;;;;8.37;49.11;100608.33;1697830;83;21031;-69
2023/05/06 07:41:00;;;;;;;4.28;1.55;;;;;;;8.32;48.04;100601.07;1698626;82;21065;-69
2023/05/06 07:43:31;;;;;;;6.20;1.10;;;;;;;8.45;48.45;100599.47;1691194;83;20986;-70
2023/05/06 07:46:01;;;;;;;1.37;0.95;;;;;;;8.47;46.22;100620.27;1698787;82;20970;-67
2023/05/06 07:48:26;;;;;;;1.15;0.90;;;;;;;8.53;49.16;100604.49;1690508;83;21688;-67
2023/05/06 07:50:57;;;;;;;1.50;0.95;;;;;;;8.79;48.78;100600.38;1695855;82;21571;-68
2023/05/06 07:53:25;;;;;;;6.90;1.30;;;;;;;8.91;45.87;100601.38;1690640;83;21076;-67
2023/05/06 07:55:55;;;;;;;3.58;1.15;;;;;;;9.12;48.26;100602.08;1694120;83;21474;-67
2023/05/06 07:58:23;;;;;;;5.25;1.40;;;;;;;9.39;47.23;100604.84;1694866;83;21098;-67
2023/05/06 08:00:55;;;;;;;2.67;1.12;;;;;;;9.64;48.51;100609.75;1688713;82;22269;-67
2023/05/06 08:03:22;;;;;;;5.70;0.88;;;;;;;9.57;48.59;100606.89;1693062;83;21014;-67
2023/05/06 08:05:50;;;;;;;2.15;1.20;;;;;;;9.98;48.02;100606.13;1668495;83;21965;-66
2023/05/06 08:08:18;;;;;;;3.45;1.32;;;;;;;10.44;48.15;100613.83;1659118;85;21079;-67
2023/05/06 08:10:45;;;;;;;3.40;0.95;;;;;;;10.70;45.94;100629.12;1652078;85;21618;-67
2023/05/06 08:13:11;;;;;;;5.17;1.17;;;;;;;10.98;48.03;100594.61;1624557;85;21013;-65
2023/05/06 08:15:38;;;;;;;2.90;1.52;;;;;;;10.91;46.91;100606.16;1620157;87;20993;-68
2023/05/06 08:18:05;;;;;;;4.72;1.20;;;;;;;10.75;46.99;100591.91;1647811;85;21026;-65
2023/05/06 08:20:31;;;;;;;3.87;1.00;;;;;;;10.70;46.79;100599.08;1637654;85;21099;-64
2023/05/06 08:22:59;;;;;;;2.50;0.88;;;;;;;10.69;46.85;100586.91;1646762;85;20992;-64
2023/05/06 08:25:25;;;;;;;2.20;1.00;;;;;;;10.66;46.85;100588.31;1646331;85;21661;-66
2023/05/06 08:27:53;;;;;;;2.67;0.93;;;;;;;10.39;44.81;100594.00;1682140;83;21023;-61
2023/05/06 08:30:19;;;;;;;2.40;1.10;;;;;;;10.30;43.82;100592.54;1681487;84;21038;-64
2023/05/06 08:32:46;;;;;;;2.37;1.03;;;;;;;10.29;43.12;100613.03;1682658;83;20988;-65
2023/05/06 08:35:12;;;;;;;6.15;3.65;;;;;;;10.28;43.59;100592.61;1685086;82;21082;-62
2023/05/06 08:37:40;;;;;;;4.17;1.22;;;;;;;10.45;43.53;100595.12;1684363;84;20980;-64
2023/05/06 08:40:08;;;;;;;;;;;;;;;10.59;41.56;100585.53;1656719;85;21017;-66
2023/05/06 08:42:41;;;;;;;2.12;1.00;;;;;;;10.61;40.91;100607.20;1635415;86;20468;-61
2023/05/06 08:45:10;;;;;;;1.92;1.25;;;;;;;10.70;43.17;100588.63;1646529;85;21044;-63
2023/05/06 08:47:41;;;;;;;4.12;0.90;;;;;;;10.34;42.50;100601.15;1639797;86;21052;-62
2023/05/06 08:50:09;;;;;;;2.55;1.05;;;;;;;10.13;41.87;100593.50;1631321;87;21012;-62
2023/05/06 08:52:36;;;;;;;1.60;1.00;;;;;;;10.05;42.63;100593.31;1635161;86;21039;-64
2023/05/06 08:55:04;;;;;;;2.20;1.00;;;;;;;9.95;42.01;100596.25;1688995;83;21027;-62
2023/05/06 08:57:35;;;;;;;;;;;;;;;10.02;43.41;100588.16;1685005;83;21077;-63
2023/05/06 09:00:09;;;;;;;1.90;1.00;;;;;;;9.50;41.39;100593.66;1681833;84;20446;-60
2023/05/06 09:02:34;;;;;;;3.20;1.00;;;;;;;9.50;41.39;100593.66;1686568;83;21030;-60
2023/05/06 09:05:01;;;;;;;1.37;0.90;;;;;;;9.60;42.63;100585.09;1688037;83;21018;-60
2023/05/06 09:07:27;;;;;;;;;;;;;;;9.67;42.74;100580.58;1688507;83;21609;-60
2023/05/06 09:09:55;;;;;;;7.67;1.20;;;;;;;9.72;42.08;100583.88;1684402;83;20322;-60
2023/05/06 09:12:24;;;;;;;2.50;0.88;;;;;;;9.83;41.15;100580.06;1688985;83;21074;-61
2023/05/06 09:14:52;;;;;;;4.25;1.10;;;;;;;9.26;41.86;100563.92;1687287;83;21585;-61
2023/05/06 09:17:25;;;;;;;4.55;0.90;;;;;;;9.26;41.86;100563.92;1657320;83;21592;-60
2023/05/06 09:19:56;;;;;;;3.67;1.10;;;;;;;9.29;41.44;100578.61;1686232;83;21069;-60
2023/05/06 09:22:23;;;;;;;3.47;1.70;;;;;;;9.21;41.42;100581.88;1688026;83;21054;-60
2023/05/06 09:24:55;;;;;;;;;;;;;;;9.36;41.30;100595.34;1688205;83;21055;-65
2023/05/06 09:27:23;;;;;;;4.60;1.02;;;;;;;9.40;41.90;100586.53;1667180;84;20264;-64
2023/05/06 09:30:12;;;;;;;2.40;1.07;;;;;;;9.48;42.13;100588.92;1665089;83;21131;-59
2023/05/06 09:32:40;;;;;;;4.45;1.00;;;;;;;9.23;41.13;100596.58;1670153;84;21108;-64
2023/05/06 09:35:13;;;;;;;1.67;1.00;;;;;;;9.02;41.54;100586.31;1663084;84;21111;-63
2023/05/06 09:37:41;;;;;;;2.62;1.27;;;;;;;9.02;41.82;100580.22;1661782;84;21082;-62
2023/05/06 09:40:09;;;;;;;1.60;1.32;;;;;;;9.00;41.25;100591.16;1661431;84;21613;-62
2023/05/06 09:42:35;;;;;;;;;;;;;;;9.16;41.45;100589.39;1669981;84;21055;-60
2023/05/06 09:45:08;;;;;;;2.98;1.50;;;;;;;9.35;41.77;100592.77;1671497;84;20221;-61
2023/05/06 09:47:35;;;;;;;4.12;1.40;;;;;;;9.33;40.95;100605.02;1646996;84;21630;-61
2023/05/06 09:50:04;;;;;;;2.00;1.05;;;;;;;9.26;41.53;100585.22;1663396;85;21724;-60
2023/05/06 09:52:32;;;;;;;1.75;1.15;;;;;;;9.16;41.17;100593.30;1657181;83;21074;-65
2023/05/06 09:55:06;;;;;;;2.72;1.40;;;;;;;9.06;41.30;100578.81;1665776;83;21574;-62
2023/05/06 09:57:32;;;;;;;3.27;1.52;;;;;;;9.05;42.20;100569.30;1662762;84;21060;-64
2023/05/06 10:00:01;;;;;;;4.70;1.55;;;;;;;9.05;42.20;100569.30;1661198;84;21059;-62
2023/05/06 10:02:28;;;;;;;3.37;1.30;;;;;;;9.09;41.93;100580.02;1660462;85;21026;-64
2023/05/06 10:04:58;;;;;;;2.43;1.63;;;;;;;9.34;42.52;100569.77;1660702;85;21536;-65
2023/05/06 10:07:27;;;;;;;2.33;1.37;;;;;;;9.55;41.67;100576.55;1645133;85;21040;-67
2023/05/06 10:09:59;;;;;;;4.00;1.90;;;;;;;9.44;41.89;100567.77;1655136;86;21071;-64
2023/05/06 10:12:28;;;;;;;2.90;1.52;;;;;;;9.10;41.87;100583.05;1653221;85;21047;-61
2023/05/06 10:15:08;;;;;;;;;;;;;;;;;;;;;
2023/05/06 10:17:34;;;;;;;3.45;1.65;;;;;;;9.02;42.11;100556.36;1639513;85;21499;-60
2023/05/06 10:20:01;;;;;;;3.00;1.70;;;;;;;9.02;42.11;100556.36;1655335;84;21092;-61
2023/05/06 10:23:02;;;;;;;5.55;1.50;;;;;;;8.88;42.14;100563.70;1659425;85;21045;-60
2023/05/06 10:25:34;;;;;;;3.77;2.15;;;;;;;8.80;42.28;100557.84;1667765;84;21091;-60
2023/05/06 10:28:04;;;;;;;2.83;2.15;;;;;;;8.77;42.13;100555.31;1665771;83;21037;-62
2023/05/06 10:30:33;;;;;;;2.83;1.42;;;;;;;8.48;42.15;100554.30;1673480;84;21066;-60
2023/05/06 10:33:12;;;;;;;3.33;1.15;;;;;;;8.33;42.28;100557.27;1657475;84;21165;-70
2023/05/06 10:36:01;;;;;;;2.75;1.77;;;;;;;8.25;42.17;100550.48;1672447;84;22265;-62
2023/05/06 10:38:36;;;;;;;3.25;1.70;;;;;;;8.18;42.22;100546.34;1646589;86;20999;-60
2023/05/06 10:41:03;;;;;;;4.28;1.57;;;;;;;8.22;42.55;100562.27;1643223;86;21561;-65
2023/05/06 10:43:31;;;;;;;3.30;1.55;;;;;;;8.29;42.59;100557.34;1678337;84;21103;-61
2023/05/06 10:46:15;;;;;;;3.20;1.77;;;;;;;8.46;42.52;100563.91;1680580;82;20984;-60
2023/05/06 10:49:09;;;;;;;5.37;2.83;;;;;;;8.52;42.17;100545.53;1682643;84;21027;-60
2023/05/06 10:51:34;;;;;;;3.33;1.50;;;;;;;8.58;42.63;100555.78;1675098;84;21687;-61
2023/05/06 10:54:06;;;;;;;2.30;1.52;;;;;;;8.72;42.45;100545.86;1677028;84;21542;-61
2023/05/06 10:56:48;;;;;;;2.85;1.82;;;;;;;8.70;42.56;100560.66;1684140;83;21487;-61
2023/05/06 10:59:23;;;;;;;7.87;1.50;;;;;;;8.69;42.55;100551.15;1677343;84;21079;-62
2023/05/06 11:02:04;;;;;;;6.62;1.90;;;;;;;8.46;42.37;100543.09;1678806;84;21071;-60
2023/05/06 11:04:36;;;;;;;3.05;2.15;;;;;;;8.34;42.62;100538.14;1678780;83;21078;-62
2023/05/06 11:07:21;;;;;;;1.95;1.10;;;;;;;8.44;42.67;100543.56;1681841;84;21046;-60
2023/05/06 11:10:05;;;;;;;5.05;1.47;;;;;;;8.48;42.78;100555.59;1650433;85;21055;-60
2023/05/06 11:12:54;;;;;;;4.45;1.40;;;;;;;8.46;42.72;100549.59;1639314;85;21641;-61
2023/05/06 11:15:39;;;;;;;3.65;1.75;;;;;;;8.43;42.72;100540.53;1639987;85;21049;-60
2023/05/06 11:18:35;;;;;;;3.02;1.50;;;;;;;8.63;43.40;100537.00;1643883;85;21617;-60
2023/05/06 11:21:07;;;;;;;3.30;1.75;;;;;;;8.83;43.06;100546.03;1642253;85;21058;-68
2023/05/06 11:23:53;;;;;;;6.33;1.62;;;;;;;9.07;43.48;100541.42;1678001;84;21059;-61
2023/05/06 11:26:20;;;;;;;3.92;1.85;;;;;;;9.13;42.98;100536.07;1682695;83;21073;-60
2023/05/06 11:28:49;;;;;;;2.12;1.40;;;;;;;9.11;43.44;100539.16;1681268;84;21038;-61
2023/05/06 11:31:20;;;;;;;3.15;1.80;;;;;;;9.09;43.08;100533.13;1680063;83;21612;-61
2023/05/06 11:33:53;;;;;;;1.80;1.22;;;;;;;9.03;43.18;100542.42;1684745;83;21053;-68
2023/05/06 11:36:18;;;;;;;2.62;1.70;;;;;;;9.01;43.26;100535.09;1678046;84;21640;-60
2023/05/06 11:38:51;;;;;;;3.12;1.30;;;;;;;9.08;43.09;100537.09;1680468;84;21090;-60
2023/05/06 11:41:21;;;;;;;4.37;1.40;;;;;;;9.12;43.16;100540.00;1680576;84;21042;-60